createdAt,value
2023-04-29T00:01:40.649Z,54.50
2023-04-29T00:04:08.213Z,54.60
2023-04-29T00:06:36.029Z,54.50
2023-04-29T00:09:04.692Z,54.30
2023-04-29T00:11:32.273Z,54.30
2023-04-29T00:13:59.686Z,55.10
2023-04-29T00:16:26.867Z,54.10
2023-04-29T00:18:54.503Z,54.10
2023-04-29T00:21:22.055Z,54.10
2023-04-29T00:23:49.285Z,54.60
2023-04-29T00:26:16.756Z,54.20
2023-04-29T00:28:47.170Z,54.50
2023-04-29T00:31:14.833Z,54.50
2023-04-29T00:33:42.724Z,54.00
2023-04-29T00:36:09.946Z,53.70
2023-04-29T00:38:37.221Z,53.90
2023-04-29T00:41:04.903Z,53.90
2023-04-29T00:43:32.159Z,53.60
2023-04-29T00:45:59.587Z,53.10
2023-04-29T00:48:26.818Z,53.70
2023-04-29T00:50:54.158Z,54.50
2023-04-29T00:53:23.251Z,54.70
2023-04-29T00:55:52.107Z,55.10
2023-04-29T00:58:20.208Z,54.70
2023-04-29T01:00:49.618Z,54.60
2023-04-29T01:03:17.269Z,55.00
2023-04-29T01:05:50.412Z,55.00
2023-04-29T01:08:56.933Z,54.90
2023-04-29T01:11:30.980Z,54.60
2023-04-29T01:14:03.324Z,54.90
2023-04-29T01:16:35.312Z,55.50
2023-04-29T01:19:24.484Z,55.00
2023-04-29T01:21:51.696Z,54.70
2023-04-29T01:24:19.126Z,54.60
2023-04-29T01:27:05.399Z,54.70
2023-04-29T01:30:02.484Z,54.80
2023-04-29T01:32:51.628Z,54.60
2023-04-29T01:35:54.167Z,54.50
2023-04-29T01:38:37.864Z,54.50
2023-04-29T01:41:16.478Z,54.30
2023-04-29T01:43:50.105Z,54.50
2023-04-29T01:46:21.908Z,56.00
2023-04-29T01:48:56.194Z,55.60
2023-04-29T01:51:24.123Z,55.40
2023-04-29T01:53:51.665Z,55.70
2023-04-29T01:56:19.438Z,55.50
2023-04-29T01:59:08.211Z,55.30
2023-04-29T02:01:46.942Z,54.90
2023-04-29T02:04:14.209Z,56.30
2023-04-29T02:06:42.137Z,57.70
2023-04-29T02:09:09.417Z,57.90
2023-04-29T02:11:36.797Z,57.90
2023-04-29T02:14:04.079Z,58.20
2023-04-29T02:16:31.292Z,59.00
2023-04-29T02:19:02.485Z,59.50
2023-04-29T02:21:29.716Z,59.60
2023-04-29T02:23:57.013Z,59.60
2023-04-29T02:26:25.625Z,59.50
2023-04-29T02:28:56.571Z,59.80
2023-04-29T02:31:23.806Z,59.80
2023-04-29T02:33:51.391Z,60.00
2023-04-29T02:36:18.671Z,59.60
2023-04-29T02:38:45.847Z,59.80
2023-04-29T02:41:19.668Z,60.00
2023-04-29T02:43:51.918Z,59.70
2023-04-29T02:46:19.388Z,59.00
2023-04-29T02:48:46.772Z,59.20
2023-04-29T02:51:15.191Z,59.90
2023-04-29T02:53:42.409Z,59.20
2023-04-29T02:56:09.853Z,60.40
2023-04-29T02:58:37.358Z,59.50
2023-04-29T03:01:05.014Z,59.60
2023-04-29T03:03:32.750Z,58.40
2023-04-29T03:06:00.195Z,58.10
2023-04-29T03:08:28.241Z,57.70
2023-04-29T03:10:56.558Z,57.30
2023-04-29T03:13:24.358Z,57.30
2023-04-29T03:15:51.938Z,57.20
2023-04-29T03:18:19.494Z,57.50
2023-04-29T03:20:48.472Z,57.80
2023-04-29T03:23:15.722Z,57.80
2023-04-29T03:25:43.312Z,58.00
2023-04-29T03:28:10.759Z,58.20
2023-04-29T03:30:38.827Z,58.30
2023-04-29T03:33:06.412Z,58.10
2023-04-29T03:35:35.352Z,58.50
2023-04-29T03:38:20.920Z,58.70
2023-04-29T03:40:49.429Z,58.50
2023-04-29T03:43:18.330Z,58.70
2023-04-29T03:45:45.665Z,58.60
2023-04-29T03:48:16.233Z,58.60
2023-04-29T03:50:44.921Z,58.10
2023-04-29T03:53:13.169Z,59.10
2023-04-29T03:55:40.373Z,59.60
2023-04-29T03:58:08.386Z,59.70
2023-04-29T04:00:35.909Z,60.00
2023-04-29T04:03:07.862Z,59.70
2023-04-29T04:05:36.300Z,60.40
2023-04-29T04:08:09.046Z,61.30
2023-04-29T04:10:50.940Z,62.00
2023-04-29T04:13:33.380Z,62.70
2023-04-29T04:16:00.905Z,63.30
2023-04-29T04:18:28.543Z,63.90
2023-04-29T04:20:56.064Z,64.40
2023-04-29T04:23:25.442Z,65.20
2023-04-29T04:25:53.966Z,66.40
2023-04-29T04:28:40.322Z,67.20
2023-04-29T04:31:14.892Z,67.70
2023-04-29T04:33:42.892Z,68.00
2023-04-29T04:36:10.464Z,68.60
2023-04-29T04:38:38.095Z,68.20
2023-04-29T04:41:10.365Z,68.40
2023-04-29T04:43:41.497Z,69.10
2023-04-29T04:46:17.018Z,69.70
2023-04-29T04:49:04.558Z,70.10
2023-04-29T04:51:34.415Z,71.50
2023-04-29T04:54:01.702Z,71.40
2023-04-29T04:56:30.830Z,71.60
2023-04-29T04:58:57.967Z,70.90
2023-04-29T05:01:25.223Z,71.00
2023-04-29T05:03:52.765Z,70.80
2023-04-29T05:06:20.433Z,70.50
2023-04-29T05:08:48.565Z,70.40
2023-04-29T05:11:21.094Z,70.20
2023-04-29T05:14:05.250Z,70.50
2023-04-29T05:16:32.938Z,73.20
2023-04-29T05:19:00.209Z,74.20
2023-04-29T05:21:32.124Z,74.70
2023-04-29T05:24:00.439Z,74.90
2023-04-29T05:26:29.143Z,75.10
2023-04-29T05:29:01.381Z,75.20
2023-04-29T05:31:32.602Z,75.00
2023-04-29T05:34:03.472Z,74.90
2023-04-29T05:36:31.958Z,75.00
2023-04-29T05:38:59.277Z,74.60
2023-04-29T05:41:26.935Z,74.20
2023-04-29T05:43:57.207Z,73.20
2023-04-29T05:46:24.610Z,73.20
2023-04-29T05:48:52.289Z,72.20
2023-04-29T05:51:20.441Z,72.10
2023-04-29T05:53:49.270Z,71.60
2023-04-29T05:56:16.849Z,71.00
2023-04-29T05:58:44.186Z,72.00
2023-04-29T06:01:12.191Z,71.20
2023-04-29T06:03:39.872Z,70.70
2023-04-29T06:06:26.100Z,71.20
2023-04-29T06:09:26.479Z,71.00
2023-04-29T06:11:56.560Z,69.90
2023-04-29T06:14:24.121Z,69.90
2023-04-29T06:16:53.835Z,70.20
2023-04-29T06:19:21.639Z,70.90
2023-04-29T06:21:49.719Z,71.20
2023-04-29T06:24:18.073Z,71.20
2023-04-29T06:26:46.295Z,71.30
2023-04-29T06:29:13.771Z,71.90
2023-04-29T06:31:41.769Z,71.40
2023-04-29T06:34:09.428Z,70.10
2023-04-29T06:36:46.463Z,69.10
2023-04-29T06:39:40.927Z,69.50
2023-04-29T06:42:28.796Z,69.90
2023-04-29T06:45:21.606Z,69.10
2023-04-29T06:48:09.169Z,68.90
2023-04-29T06:50:39.485Z,68.60
2023-04-29T06:53:08.139Z,67.70
2023-04-29T06:55:35.931Z,65.90
2023-04-29T06:58:04.670Z,67.30
2023-04-29T07:00:31.968Z,67.30
2023-04-29T07:02:59.283Z,66.80
2023-04-29T07:05:26.600Z,65.90
2023-04-29T07:07:53.803Z,66.30
2023-04-29T07:10:21.158Z,65.60
2023-04-29T07:12:48.369Z,65.60
2023-04-29T07:15:16.531Z,66.90
2023-04-29T07:17:44.018Z,68.50
2023-04-29T07:20:11.922Z,68.80
2023-04-29T07:22:39.357Z,70.00
2023-04-29T07:25:07.051Z,69.00
2023-04-29T07:27:37.297Z,68.90
2023-04-29T07:30:06.453Z,69.90
2023-04-29T07:32:33.824Z,69.60
2023-04-29T07:35:04.469Z,69.70
2023-04-29T07:37:33.254Z,69.70
2023-04-29T07:40:00.977Z,68.90
2023-04-29T07:42:31.614Z,68.40
2023-04-29T07:45:00.197Z,68.00
2023-04-29T07:47:32.678Z,66.80
2023-04-29T07:50:01.402Z,67.20
2023-04-29T07:52:31.443Z,68.30
2023-04-29T07:54:58.696Z,68.40
2023-04-29T07:57:26.435Z,68.60
2023-04-29T07:59:54.751Z,67.30
2023-04-29T08:02:22.148Z,66.80
2023-04-29T08:04:51.820Z,66.20
2023-04-29T08:07:19.653Z,64.90
2023-04-29T08:09:47.016Z,64.50
2023-04-29T08:12:14.267Z,65.80
2023-04-29T08:14:41.609Z,64.50
2023-04-29T08:17:08.966Z,64.90
2023-04-29T08:19:36.334Z,64.60
2023-04-29T08:22:04.423Z,64.50
2023-04-29T08:24:33.575Z,64.00
2023-04-29T08:27:01.535Z,64.70
2023-04-29T08:29:32.122Z,65.50
2023-04-29T08:31:59.515Z,64.20
2023-04-29T08:34:26.947Z,64.60
2023-04-29T08:36:54.252Z,63.50
2023-04-29T08:39:21.454Z,64.50
2023-04-29T08:41:51.491Z,63.40
2023-04-29T08:44:18.873Z,64.30
2023-04-29T08:46:46.758Z,63.80
2023-04-29T08:49:14.626Z,61.90
2023-04-29T08:51:42.445Z,61.50
2023-04-29T08:54:09.788Z,62.70
2023-04-29T08:56:37.526Z,61.50
2023-04-29T08:59:07.278Z,60.40
2023-04-29T09:01:36.729Z,60.40
2023-04-29T09:04:24.693Z,60.90
2023-04-29T09:06:53.032Z,60.50
2023-04-29T09:09:21.195Z,58.50
2023-04-29T09:11:48.515Z,59.30
2023-04-29T09:14:16.296Z,58.80
2023-04-29T09:16:47.009Z,59.20
2023-04-29T09:19:33.789Z,58.90
2023-04-29T09:22:03.186Z,58.80
2023-04-29T09:24:32.058Z,58.40
2023-04-29T09:27:00.310Z,57.80
2023-04-29T09:29:27.659Z,58.10
2023-04-29T09:31:56.262Z,58.00
2023-04-29T09:34:36.085Z,58.10
2023-04-29T09:37:09.039Z,59.30
2023-04-29T09:39:41.987Z,58.20
2023-04-29T09:42:09.707Z,57.70
2023-04-29T09:44:37.111Z,57.90
2023-04-29T09:47:09.110Z,57.60
2023-04-29T09:49:42.011Z,57.60
2023-04-29T09:52:16.863Z,57.40
2023-04-29T09:54:44.870Z,56.60
2023-04-29T09:57:15.772Z,55.60
2023-04-29T09:59:43.575Z,57.00
2023-04-29T10:02:21.007Z,56.10
2023-04-29T10:04:58.355Z,56.20
2023-04-29T10:07:28.112Z,57.30
2023-04-29T10:09:56.194Z,58.50
2023-04-29T10:12:26.428Z,57.70
2023-04-29T10:15:16.281Z,56.80
2023-04-29T10:18:12.651Z,58.00
2023-04-29T10:20:46.121Z,55.50
2023-04-29T10:23:19.941Z,56.40
2023-04-29T10:25:52.674Z,57.70
2023-04-29T10:28:21.566Z,57.60
2023-04-29T10:30:52.471Z,57.70
2023-04-29T10:33:20.970Z,57.50
2023-04-29T10:35:49.634Z,56.30
2023-04-29T10:38:29.693Z,56.10
2023-04-29T10:40:59.920Z,55.70
2023-04-29T10:43:27.675Z,55.50
2023-04-29T10:46:21.666Z,56.80
2023-04-29T10:48:51.258Z,57.10
2023-04-29T10:51:42.384Z,58.80
2023-04-29T10:54:17.624Z,57.30
2023-04-29T10:56:54.033Z,58.50
2023-04-29T10:59:22.480Z,58.20
2023-04-29T11:01:51.968Z,58.40
2023-04-29T11:04:21.804Z,57.80
2023-04-29T11:06:53.701Z,58.50
2023-04-29T11:09:21.047Z,57.70
2023-04-29T11:12:06.270Z,58.00
2023-04-29T11:14:37.988Z,58.30
2023-04-29T11:17:09.437Z,56.60
2023-04-29T11:19:45.579Z,56.50
2023-04-29T11:22:32.262Z,55.80
2023-04-29T11:25:03.895Z,57.10
2023-04-29T11:27:36.847Z,57.00
2023-04-29T11:30:06.964Z,55.40
2023-04-29T11:32:45.799Z,56.80
2023-04-29T11:35:15.800Z,57.10
2023-04-29T11:37:45.560Z,56.50
2023-04-29T11:40:15.878Z,57.30
2023-04-29T11:42:49.808Z,54.60
2023-04-29T11:45:20.545Z,54.40
2023-04-29T11:47:49.064Z,54.00
2023-04-29T11:50:20.116Z,54.30
2023-04-29T11:52:49.240Z,54.00
2023-04-29T11:55:16.637Z,54.30
2023-04-29T11:57:44.548Z,54.20
2023-04-29T12:00:13.888Z,54.40
2023-04-29T12:02:48.680Z,54.40
2023-04-29T12:05:17.675Z,54.70
2023-04-29T12:07:46.139Z,53.70
2023-04-29T12:10:14.388Z,53.30
2023-04-29T12:12:44.100Z,53.40
2023-04-29T12:15:13.001Z,53.30
2023-04-29T12:17:42.429Z,53.10
2023-04-29T12:20:12.110Z,53.80
2023-04-29T12:22:39.971Z,53.10
2023-04-29T12:25:10.876Z,53.70
2023-04-29T12:27:45.576Z,53.40
2023-04-29T12:30:14.841Z,53.90
2023-04-29T12:32:42.478Z,51.10
2023-04-29T12:35:17.651Z,52.30
2023-04-29T12:37:49.196Z,52.50
2023-04-29T12:40:17.545Z,52.40
2023-04-29T12:42:47.613Z,51.80
2023-04-29T12:45:34.325Z,51.70
2023-04-29T12:48:07.161Z,51.50
2023-04-29T12:50:38.790Z,51.10
2023-04-29T12:53:08.313Z,50.80
2023-04-29T12:55:39.361Z,50.00
2023-04-29T12:58:07.694Z,49.80
2023-04-29T13:00:37.691Z,49.40
2023-04-29T13:03:05.355Z,49.60
2023-04-29T13:05:33.169Z,50.40
2023-04-29T13:08:00.732Z,48.40
2023-04-29T13:10:31.377Z,44.60
2023-04-29T13:12:58.813Z,41.50
2023-04-29T13:15:26.860Z,39.30
2023-04-29T13:17:54.337Z,36.70
2023-04-29T13:20:21.991Z,35.70
2023-04-29T13:22:49.324Z,34.50
2023-04-29T13:25:17.105Z,34.30
2023-04-29T13:27:44.562Z,34.30
2023-04-29T13:40:20.480Z,31.70
2023-04-29T13:42:50.575Z,29.80
2023-04-29T13:45:24.119Z,29.40
2023-04-29T13:48:07.668Z,29.80
2023-04-29T13:53:41.216Z,32.60
2023-04-29T14:03:31.470Z,33.60
2023-04-29T14:06:01.905Z,35.00
2023-04-29T14:08:29.291Z,36.60
2023-04-29T14:10:57.014Z,36.70
2023-04-29T14:13:27.207Z,36.30
2023-04-29T14:15:58.965Z,36.30
2023-04-29T14:18:27.504Z,36.50
2023-04-29T14:20:54.804Z,35.30
2023-04-29T14:23:22.176Z,36.30
2023-04-29T14:25:49.367Z,37.00
2023-04-29T14:28:16.506Z,37.50
2023-04-29T14:30:46.115Z,37.10
2023-04-29T14:33:14.623Z,37.70
2023-04-29T14:35:42.037Z,38.10
2023-04-29T14:38:09.260Z,37.60
2023-04-29T14:40:37.017Z,37.30
2023-04-29T14:43:04.629Z,37.30
2023-04-29T14:45:32.221Z,37.30
2023-04-29T14:47:59.552Z,37.10
2023-04-29T14:50:26.953Z,36.50
2023-04-29T14:52:54.340Z,37.10
2023-04-29T14:55:21.570Z,38.50
2023-04-29T14:57:49.093Z,39.30
2023-04-29T15:00:16.671Z,40.30
2023-04-29T15:02:43.970Z,39.90
2023-04-29T15:05:11.330Z,40.10
2023-04-29T15:07:38.789Z,40.00
2023-04-29T15:10:07.946Z,39.70
2023-04-29T15:12:35.143Z,39.00
2023-04-29T15:15:02.278Z,38.20
2023-04-29T15:17:32.246Z,37.70
2023-04-29T15:19:59.597Z,37.50
2023-04-29T15:22:26.951Z,37.60
2023-04-29T15:24:54.950Z,37.40
2023-04-29T15:27:22.156Z,37.80
2023-04-29T15:29:49.439Z,37.50
2023-04-29T15:32:16.686Z,36.80
2023-04-29T15:34:43.937Z,36.40
2023-04-29T15:37:11.166Z,36.30
2023-04-29T15:39:38.388Z,35.90
2023-04-29T15:42:05.865Z,35.30
2023-04-29T15:44:33.467Z,34.90
2023-04-29T15:47:00.728Z,34.50
2023-04-29T15:49:27.936Z,35.50
2023-04-29T15:51:55.221Z,36.00
2023-04-29T15:54:23.501Z,36.70
2023-04-29T15:56:51.167Z,37.40
2023-04-29T15:59:18.347Z,38.20
2023-04-29T16:01:45.912Z,39.10
2023-04-29T16:04:13.197Z,39.50
2023-04-29T16:06:41.031Z,39.80
2023-04-29T16:09:10.180Z,40.40
2023-04-29T16:11:37.629Z,40.70
2023-04-29T16:14:04.789Z,41.00
2023-04-29T16:16:32.204Z,41.10
2023-04-29T16:18:59.386Z,41.50
2023-04-29T16:21:27.645Z,41.70
2023-04-29T16:23:54.837Z,42.00
2023-04-29T16:26:22.462Z,42.40
2023-04-29T16:28:49.879Z,42.80
2023-04-29T16:31:19.404Z,42.90
2023-04-29T16:33:46.694Z,43.40
2023-04-29T16:36:13.964Z,44.10
2023-04-29T16:38:41.177Z,44.50
2023-04-29T16:41:08.495Z,44.50
2023-04-29T16:43:38.664Z,44.90
2023-04-29T16:46:06.311Z,45.40
2023-04-29T16:48:33.737Z,45.80
2023-04-29T16:51:01.460Z,45.80
2023-04-29T16:53:28.951Z,46.20
2023-04-29T16:55:56.698Z,46.20
2023-04-29T16:58:23.999Z,46.00
2023-04-29T17:00:53.614Z,45.80
2023-04-29T17:03:20.818Z,46.40
2023-04-29T17:05:48.765Z,46.20
2023-04-29T17:08:16.052Z,46.10
2023-04-29T17:10:43.999Z,46.60
2023-04-29T17:13:11.173Z,46.00
2023-04-29T17:15:38.385Z,46.10
2023-04-29T17:18:05.631Z,46.40
2023-04-29T17:20:32.852Z,46.60
2023-04-29T17:23:00.038Z,46.80
2023-04-29T17:25:27.300Z,47.20
2023-04-29T17:27:54.551Z,47.70
2023-04-29T17:30:22.072Z,48.10
2023-04-29T17:32:50.005Z,48.40
2023-04-29T17:35:17.261Z,48.70
2023-04-29T17:37:44.556Z,49.00
2023-04-29T17:40:12.092Z,49.30
2023-04-29T17:42:39.430Z,49.60
2023-04-29T17:45:07.372Z,50.00
2023-04-29T17:47:35.536Z,50.30
2023-04-29T17:50:03.067Z,50.60
2023-04-29T17:52:31.673Z,50.80
2023-04-29T17:54:59.178Z,51.00
2023-04-29T17:57:28.666Z,51.30
2023-04-29T17:59:56.414Z,51.30
2023-04-29T18:02:23.843Z,51.30
2023-04-29T18:04:51.002Z,51.50
2023-04-29T18:07:18.114Z,51.60
2023-04-29T18:09:45.444Z,51.80
2023-04-29T18:12:12.557Z,51.80
2023-04-29T18:14:39.815Z,51.90
2023-04-29T18:17:07.200Z,51.90
2023-04-29T18:19:34.792Z,51.70
2023-04-29T18:22:02.785Z,51.80
2023-04-29T18:24:29.981Z,51.90
2023-04-29T18:26:58.007Z,51.80
2023-04-29T18:29:25.364Z,51.90
2023-04-29T18:31:54.868Z,52.00
2023-04-29T18:34:22.383Z,51.90
2023-04-29T18:36:49.527Z,51.60
2023-04-29T18:39:17.093Z,51.60
2023-04-29T18:41:44.607Z,51.70
2023-04-29T18:44:11.916Z,51.70
2023-04-29T18:46:39.422Z,51.70
2023-04-29T18:49:06.639Z,51.80
2023-04-29T18:51:33.770Z,51.90
2023-04-29T18:54:00.882Z,52.10
2023-04-29T18:56:28.266Z,52.00
2023-04-29T18:58:55.648Z,52.00
2023-04-29T19:01:22.912Z,52.00
2023-04-29T19:03:50.079Z,51.80
2023-04-29T19:06:17.249Z,51.90
2023-04-29T19:08:44.761Z,52.00
2023-04-29T19:11:12.128Z,52.10
2023-04-29T19:13:39.369Z,52.10
2023-04-29T19:16:06.732Z,53.00
2023-04-29T19:18:33.856Z,52.60
2023-04-29T19:21:01.088Z,52.80
2023-04-29T19:23:28.364Z,53.10
2023-04-29T19:25:55.568Z,53.40
2023-04-29T19:28:22.933Z,53.70
2023-04-29T19:30:50.417Z,53.90
2023-04-29T19:33:17.700Z,54.20
2023-04-29T19:35:44.917Z,54.30
2023-04-29T19:38:12.128Z,54.60
2023-04-29T19:40:39.387Z,55.10
2023-04-29T19:43:06.523Z,55.40
2023-04-29T19:45:34.791Z,56.10
2023-04-29T19:48:03.595Z,57.50
2023-04-29T19:50:31.553Z,58.10
2023-04-29T19:52:59.313Z,58.40
2023-04-29T19:55:27.084Z,58.60
2023-04-29T19:57:54.419Z,58.90
2023-04-29T20:00:22.442Z,59.10
2023-04-29T20:02:52.118Z,59.40
2023-04-29T20:05:19.961Z,59.40
2023-04-29T20:07:47.530Z,59.40
2023-04-29T20:10:15.165Z,59.60
2023-04-29T20:12:42.336Z,59.90
2023-04-29T20:15:10.273Z,60.30
2023-04-29T20:17:37.807Z,60.40
2023-04-29T20:20:08.997Z,60.80
2023-04-29T20:22:36.653Z,61.30
2023-04-29T20:25:04.218Z,61.60
2023-04-29T20:27:31.990Z,61.80
2023-04-29T20:29:59.565Z,62.50
2023-04-29T20:32:27.251Z,63.10
2023-04-29T20:34:55.101Z,63.70
2023-04-29T20:37:22.483Z,64.50
2023-04-29T20:39:49.725Z,65.10
2023-04-29T20:42:17.066Z,65.50
2023-04-29T20:44:44.526Z,65.60
2023-04-29T20:47:12.508Z,66.10
2023-04-29T20:49:39.816Z,66.40
2023-04-29T20:52:07.244Z,67.00
2023-04-29T20:54:35.027Z,67.50
2023-04-29T20:57:05.501Z,68.00
2023-04-29T20:59:33.760Z,68.60
2023-04-29T21:02:01.307Z,69.40
2023-04-29T21:04:28.956Z,70.50
2023-04-29T21:06:56.262Z,71.20
2023-04-29T21:09:23.609Z,71.80
2023-04-29T21:11:51.194Z,72.20
2023-04-29T21:14:19.041Z,73.40
2023-04-29T21:16:46.433Z,74.00
2023-04-29T21:19:13.578Z,74.50
2023-04-29T21:21:40.836Z,75.10
2023-04-29T21:24:08.122Z,76.10
2023-04-29T21:26:35.467Z,76.60
2023-04-29T21:29:03.783Z,77.30
2023-04-29T21:31:31.626Z,77.60
2023-04-29T21:34:00.325Z,78.10
2023-04-29T21:36:28.238Z,78.10
2023-04-29T21:38:55.693Z,78.80
2023-04-29T21:41:29.509Z,79.90
2023-04-29T21:44:01.608Z,80.30
2023-04-29T21:46:30.681Z,81.80
2023-04-29T21:48:58.425Z,83.00
2023-04-29T21:51:26.462Z,83.80
2023-04-29T21:53:54.193Z,84.80
2023-04-29T21:56:26.993Z,86.10
2023-04-29T21:58:54.345Z,87.10
2023-04-29T22:01:40.536Z,88.60
2023-04-29T22:04:08.583Z,89.70
2023-04-29T22:06:36.209Z,90.60
2023-04-29T22:09:03.646Z,91.20
2023-04-29T22:11:31.049Z,91.70
2023-04-29T22:13:58.401Z,92.40
2023-04-29T22:16:26.046Z,92.90
2023-04-29T22:18:53.577Z,93.20
2023-04-29T22:21:20.842Z,93.50
2023-04-29T22:23:49.361Z,93.90
2023-04-29T22:26:16.637Z,94.10
2023-04-29T22:28:43.906Z,94.40
2023-04-29T22:31:11.304Z,94.60
2023-04-29T22:33:38.497Z,95.00
2023-04-29T22:36:05.994Z,95.30
2023-04-29T22:38:33.265Z,95.60
2023-04-29T22:41:01.818Z,95.90
2023-04-29T22:43:29.106Z,96.10
2023-04-29T22:45:56.983Z,96.20
2023-04-29T22:48:27.315Z,96.30
2023-04-29T22:50:56.844Z,96.40
2023-04-29T22:53:24.290Z,96.40
2023-04-29T22:55:52.422Z,96.60
2023-04-29T22:58:20.829Z,96.60
2023-04-29T23:00:56.658Z,97.00
2023-04-29T23:03:25.043Z,97.20
2023-04-29T23:05:57.267Z,97.40
2023-04-29T23:08:24.629Z,97.40
2023-04-29T23:10:52.029Z,97.50
2023-04-29T23:13:19.454Z,97.50
2023-04-29T23:15:46.650Z,97.50
2023-04-29T23:18:14.327Z,97.60
2023-04-29T23:20:41.746Z,97.80
2023-04-29T23:23:08.931Z,97.90
2023-04-29T23:25:36.143Z,98.10
2023-04-29T23:28:03.378Z,98.20
2023-04-29T23:30:32.115Z,98.10
2023-04-29T23:32:59.828Z,98.50
2023-04-29T23:35:27.697Z,98.60
2023-04-29T23:37:55.124Z,98.80
2023-04-29T23:40:22.341Z,99.00
2023-04-29T23:42:49.571Z,99.20
2023-04-29T23:45:16.969Z,99.60
2023-04-29T23:47:44.663Z,99.90
2023-04-29T23:50:11.999Z,99.90
2023-04-29T23:52:39.254Z,99.90
2023-04-29T23:55:07.058Z,99.90
2023-04-29T23:57:34.259Z,99.90
